Terminal Aerodrome Forecast
Issued by NWS Cleveland, OH

Home | Current Version | Previous Version | Graphics & Text | Print | Product List | Glossary Off
Versions: 1 2 3 4 5 6 7 8 9 10 11 12 13 14 15 16 17 18 19

000
FTUS41 KCLE 301700 AAA
TAFTOL
TAF AMD
KTOL 301757Z 3018/3118 26006KT P6SM VCSH BKN040
     FM302200 26006KT P6SM SCT070
     FM310300 24004KT P6SM SKC
     FM311600 24008KT P6SM SCT040=

USA.gov is the U.S. government's official web portal to all federal, state and local government web resources and services.